createdAt,value
2023-01-04T00:00:42.176Z,7.75
2023-01-04T00:05:43.894Z,7.66
2023-01-04T00:10:46.876Z,7.68
2023-01-04T00:15:48.571Z,7.66
2023-01-04T00:20:50.281Z,7.64
2023-01-04T00:25:53.280Z,7.62
2023-01-04T00:30:55.119Z,7.63
2023-01-04T00:35:56.819Z,7.68
2023-01-04T00:40:59.933Z,7.63
2023-01-04T00:46:01.945Z,7.64
2023-01-04T00:51:03.924Z,7.66
2023-01-04T00:56:07.576Z,7.62
2023-01-04T01:01:09.369Z,7.66
2023-01-04T01:06:12.251Z,7.66
2023-01-04T01:11:15.349Z,7.58
2023-01-04T01:16:23.765Z,7.58
2023-01-04T01:21:33.774Z,7.58
2023-01-04T01:26:36.780Z,7.56
2023-01-04T01:31:38.490Z,7.59
2023-01-04T01:36:40.317Z,7.55
2023-01-04T01:41:43.363Z,7.52
2023-01-04T01:46:45.574Z,7.59
2023-01-04T01:51:47.274Z,7.53
2023-01-04T01:56:50.675Z,7.46
2023-01-04T02:01:52.507Z,7.46
2023-01-04T02:06:55.581Z,7.47
2023-01-04T02:11:58.654Z,7.53
2023-01-04T02:17:05.478Z,7.46
2023-01-04T02:22:20.789Z,7.46
2023-01-04T02:27:39.899Z,7.49
2023-01-04T02:32:49.035Z,7.48
2023-01-04T02:37:52.199Z,7.51
2023-01-04T02:43:16.268Z,7.49
2023-01-04T02:48:40.572Z,7.45
2023-01-04T02:53:42.260Z,7.44
2023-01-04T02:58:53.029Z,7.50
2023-01-04T03:04:20.636Z,7.53
2023-01-04T03:09:23.279Z,7.63
2023-01-04T03:14:31.978Z,7.64
2023-01-04T03:19:52.212Z,7.77
2023-01-04T03:25:12.481Z,7.81
2023-01-04T03:30:32.841Z,7.86
2023-01-04T03:35:40.456Z,7.91
2023-01-04T03:41:01.234Z,8.00
2023-01-04T03:46:23.010Z,8.06
2023-01-04T03:51:27.770Z,8.12
2023-01-04T03:56:29.458Z,8.16
2023-01-04T04:01:31.261Z,8.22
2023-01-04T04:06:52.916Z,8.26
2023-01-04T04:11:54.790Z,8.35
2023-01-04T04:16:56.572Z,8.30
2023-01-04T04:21:59.665Z,8.30
2023-01-04T04:27:01.369Z,8.18
2023-01-04T04:32:03.246Z,8.17
2023-01-04T04:37:06.292Z,8.14
2023-01-04T04:42:08.648Z,8.14
2023-01-04T04:47:10.372Z,8.04
2023-01-04T04:52:13.366Z,8.08
2023-01-04T04:57:15.532Z,7.98
2023-01-04T05:02:17.490Z,8.01
2023-01-04T05:07:20.685Z,8.02
2023-01-04T05:12:41.042Z,8.01
2023-01-04T05:17:42.723Z,8.06
2023-01-04T05:22:45.722Z,8.11
2023-01-04T05:27:47.410Z,8.25
2023-01-04T05:32:49.116Z,8.37
2023-01-04T05:37:52.230Z,8.35
2023-01-04T05:42:53.922Z,8.43
2023-01-04T05:47:55.609Z,8.22
2023-01-04T05:52:58.674Z,8.31
2023-01-04T05:58:00.578Z,8.33
2023-01-04T06:03:02.430Z,8.37
2023-01-04T06:08:06.096Z,8.35
2023-01-04T06:13:07.854Z,8.30
2023-01-04T06:18:13.590Z,8.36
2023-01-04T06:23:17.069Z,8.35
2023-01-04T06:28:18.833Z,8.28
2023-01-04T06:33:20.629Z,8.37
2023-01-04T06:38:23.625Z,8.27
2023-01-04T06:43:25.399Z,8.32
2023-01-04T06:48:27.093Z,8.37
2023-01-04T06:53:30.133Z,8.39
2023-01-04T06:58:31.752Z,8.49
2023-01-04T07:03:33.416Z,8.57
2023-01-04T07:08:36.459Z,8.53
2023-01-04T07:13:38.269Z,8.57
2023-01-04T07:18:39.938Z,8.62
2023-01-04T07:23:44.226Z,8.64
2023-01-04T07:29:04.786Z,8.66
2023-01-04T07:34:06.769Z,8.63
2023-01-04T07:39:10.976Z,8.72
2023-01-04T07:44:12.827Z,8.76
2023-01-04T07:49:17.760Z,8.83
2023-01-04T07:54:21.277Z,8.87
2023-01-04T07:59:23.090Z,8.87
2023-01-04T08:04:29.711Z,8.93
2023-01-04T08:09:35.919Z,8.93
2023-01-04T08:14:37.580Z,8.90
2023-01-04T08:19:39.344Z,8.98
2023-01-04T08:24:42.348Z,9.07
2023-01-04T08:29:44.068Z,9.12
2023-01-04T08:34:45.864Z,9.25
2023-01-04T08:39:49.878Z,9.27
2023-01-04T08:44:57.063Z,9.35
2023-01-04T08:50:07.833Z,9.33
2023-01-04T08:55:15.959Z,9.49
2023-01-04T09:00:21.680Z,9.55
2023-01-04T09:05:23.559Z,9.58
2023-01-04T09:10:26.813Z,9.63
2023-01-04T09:15:28.551Z,9.67
2023-01-04T09:20:30.311Z,9.72
2023-01-04T09:25:33.326Z,9.65
2023-01-04T09:30:35.236Z,9.67
2023-01-04T09:35:36.937Z,9.65
2023-01-04T09:40:48.399Z,9.59
2023-01-04T09:45:52.163Z,9.69
2023-01-04T09:50:56.295Z,9.55
2023-01-04T09:56:02.216Z,9.40
2023-01-04T10:01:06.231Z,9.44
2023-01-04T10:06:10.428Z,9.34
2023-01-04T10:11:23.891Z,9.43
2023-01-04T10:17:01.594Z,9.43
2023-01-04T10:21:56.441Z,9.57
2023-01-04T10:27:02.448Z,9.63
2023-01-04T10:32:05.590Z,9.53
2023-01-04T10:37:13.575Z,9.70
2023-01-04T10:42:18.718Z,9.63
2023-01-04T10:47:22.652Z,9.64
2023-01-04T10:52:26.113Z,9.71
2023-01-04T10:57:32.051Z,9.76
2023-01-04T11:02:36.395Z,9.86
2023-01-04T11:07:39.630Z,9.86
2023-01-04T11:12:42.731Z,9.96
2023-01-04T11:17:44.432Z,10.06
2023-01-04T11:22:48.627Z,10.15
2023-01-04T11:27:53.985Z,10.23
2023-01-04T11:32:57.282Z,10.28
2023-01-04T11:38:02.292Z,10.34
2023-01-04T11:43:18.457Z,10.38
2023-01-04T11:48:20.527Z,10.50
2023-01-04T11:53:24.701Z,10.52
2023-01-04T11:58:27.993Z,10.55
2023-01-04T12:03:30.510Z,10.57
2023-01-04T12:08:33.116Z,10.52
2023-01-04T12:13:36.174Z,10.53
2023-01-04T12:18:39.187Z,10.51
2023-01-04T12:23:40.948Z,10.42
2023-01-04T12:28:44.812Z,10.47
2023-01-04T12:33:46.729Z,10.51
2023-01-04T12:39:31.441Z,10.74
2023-01-04T12:45:13.673Z,10.73
2023-01-04T12:50:16.435Z,10.83
2023-01-04T12:55:26.702Z,10.77
2023-01-04T13:00:59.043Z,10.90
2023-01-04T13:06:03.035Z,10.85
2023-01-04T13:11:04.976Z,10.91
2023-01-04T13:16:15.756Z,11.07
2023-01-04T13:21:24.042Z,10.83
2023-01-04T13:26:32.809Z,10.81
2023-01-04T13:31:40.584Z,10.98
2023-01-04T13:36:43.663Z,10.95
2023-01-04T13:41:46.806Z,10.98
2023-01-04T13:46:54.240Z,11.07
2023-01-04T13:52:44.793Z,11.05
2023-01-04T13:57:33.875Z,11.01
2023-01-04T14:02:36.247Z,11.05
2023-01-04T14:07:42.352Z,11.08
2023-01-04T14:12:44.246Z,11.07
2023-01-04T14:17:49.574Z,11.06
2023-01-04T14:22:53.691Z,11.18
2023-01-04T14:28:17.960Z,11.20
2023-01-04T14:33:20.620Z,11.25
2023-01-04T14:38:23.627Z,11.28
2023-01-04T14:43:33.998Z,11.38
2023-01-04T14:48:35.645Z,11.59
2023-01-04T14:53:38.644Z,11.65
2023-01-04T14:58:41.564Z,11.69
2023-01-04T15:03:43.278Z,11.69
2023-01-04T15:08:46.398Z,11.69
2023-01-04T15:13:48.061Z,11.66
2023-01-04T15:18:49.769Z,11.69
2023-01-04T15:23:52.745Z,11.53
2023-01-04T15:28:54.425Z,11.66
2023-01-04T15:33:56.122Z,11.71
2023-01-04T15:38:59.203Z,11.61
2023-01-04T15:44:01.120Z,11.64
2023-01-04T15:49:02.796Z,11.66
2023-01-04T15:54:06.068Z,11.75
2023-01-04T15:59:07.758Z,11.89
2023-01-04T16:04:11.425Z,11.99
2023-01-04T16:09:14.596Z,12.04
2023-01-04T16:14:16.405Z,12.12
2023-01-04T16:19:18.345Z,12.19
2023-01-04T16:25:00.366Z,12.25
2023-01-04T16:29:43.026Z,12.26
2023-01-04T16:34:44.715Z,12.26
2023-01-04T16:40:05.717Z,12.27
2023-01-04T16:45:09.206Z,12.29
2023-01-04T16:50:12.038Z,12.26
2023-01-04T16:55:18.601Z,12.39
2023-01-04T17:00:25.371Z,12.43
2023-01-04T17:05:27.076Z,12.58
2023-01-04T17:10:30.070Z,12.66
2023-01-04T17:15:42.799Z,12.71
2023-01-04T17:20:51.651Z,12.66
2023-01-04T17:25:55.150Z,12.68
2023-01-04T17:30:57.119Z,12.57
2023-01-04T17:36:02.352Z,12.59
2023-01-04T17:41:09.046Z,12.54
2023-01-04T17:46:15.159Z,12.51
2023-01-04T17:51:20.533Z,12.60
2023-01-04T17:56:23.666Z,12.66
2023-01-04T18:01:25.665Z,12.78
2023-01-04T18:06:28.194Z,12.77
2023-01-04T18:11:31.194Z,12.81
2023-01-04T18:16:32.966Z,12.79
2023-01-04T18:21:34.656Z,12.86
2023-01-04T18:27:10.896Z,12.81
2023-01-04T18:32:01.027Z,12.84
2023-01-04T18:37:02.745Z,12.81
2023-01-04T18:42:05.831Z,12.70
2023-01-04T18:47:07.520Z,12.57
2023-01-04T18:52:09.263Z,12.71
2023-01-04T18:57:12.316Z,12.66
2023-01-04T19:02:15.497Z,12.66
2023-01-04T19:07:17.315Z,12.60
2023-01-04T19:12:20.410Z,12.64
2023-01-04T19:17:24.440Z,12.64
2023-01-04T19:22:26.318Z,12.60
2023-01-04T19:27:29.507Z,12.64
2023-01-04T19:32:33.617Z,12.76
2023-01-04T19:37:35.897Z,12.80
2023-01-04T19:42:40.766Z,12.73
2023-01-04T19:47:42.509Z,12.64
2023-01-04T19:52:44.579Z,12.61
2023-01-04T19:57:47.585Z,12.56
2023-01-04T20:02:49.482Z,12.48
2023-01-04T20:07:51.224Z,12.44
2023-01-04T20:12:54.332Z,12.34
2023-01-04T20:17:56.022Z,12.30
2023-01-04T20:22:57.725Z,12.35
2023-01-04T20:28:00.817Z,12.26
2023-01-04T20:33:02.522Z,12.20
2023-01-04T20:38:04.330Z,12.04
2023-01-04T20:43:47.370Z,11.92
2023-01-04T20:48:49.344Z,11.83
2023-01-04T20:53:51.197Z,11.73
2023-01-04T20:58:54.356Z,11.59
2023-01-04T21:03:56.273Z,11.52
2023-01-04T21:08:58.010Z,11.33
2023-01-04T21:14:02.558Z,11.25
2023-01-04T21:19:04.569Z,11.22
2023-01-04T21:24:06.860Z,11.26
2023-01-04T21:29:09.862Z,11.33
2023-01-04T21:34:15.095Z,11.36
2023-01-04T21:39:18.873Z,11.38
2023-01-04T21:44:21.901Z,11.26
2023-01-04T21:49:23.611Z,11.10
2023-01-04T21:54:25.368Z,11.00
2023-01-04T21:59:28.401Z,10.91
2023-01-04T22:04:30.162Z,10.86
2023-01-04T22:09:32.005Z,10.80
2023-01-04T22:14:35.222Z,10.81
2023-01-04T22:19:37.044Z,10.84
2023-01-04T22:24:38.800Z,10.84
2023-01-04T22:29:42.490Z,10.94
2023-01-04T22:34:44.469Z,11.05
2023-01-04T22:39:46.313Z,11.11
2023-01-04T22:44:49.403Z,11.12
2023-01-04T22:49:51.125Z,11.17
2023-01-04T22:54:52.814Z,11.17
2023-01-04T22:59:55.855Z,11.15
2023-01-04T23:04:57.555Z,11.09
2023-01-04T23:09:59.304Z,10.97
2023-01-04T23:15:03.704Z,10.88
2023-01-04T23:20:10.252Z,10.89
2023-01-04T23:25:12.252Z,10.87
2023-01-04T23:30:16.194Z,10.74
2023-01-04T23:35:18.079Z,10.70
2023-01-04T23:40:19.800Z,10.64
2023-01-04T23:45:22.912Z,10.70
2023-01-04T23:50:24.660Z,10.66
2023-01-04T23:55:26.371Z,10.67
